Time;durP1;ratioP1;P1;durP2;ratioP2;P2;SDS_P1;SDS_P2;PMS_P1;PMS_P2;Temp;Humidity;BMP_temperature;BMP_pressure;BME280_temperature;BME280_humidity;BME280_pressure;Samples;Min_cycle;Max_cycle;Signal;HPM_P1;HPM_P2
2023/05/04 00:00:04;;;;;;;11.45;8.70;;;;;;;9.42;67.65;102201.91;5103232;28;20107;-72
2023/05/04 00:02:30;;;;;;;15.32;9.43;;;;;;;9.39;67.99;102202.81;5101830;28;20020;-72
2023/05/04 00:04:55;;;;;;;15.55;8.85;;;;;;;9.36;67.16;102202.78;5108920;28;20085;-72
2023/05/04 00:07:20;;;;;;;11.82;9.52;;;;;;;9.38;67.72;102198.44;5103008;28;20027;-72
2023/05/04 00:09:46;;;;;;;13.07;8.48;;;;;;;9.38;66.45;102188.94;5107209;28;20019;-72
2023/05/04 00:12:11;;;;;;;17.70;8.95;;;;;;;9.31;66.59;102189.75;5107914;28;20012;-72
2023/05/04 00:14:37;;;;;;;12.10;8.40;;;;;;;9.31;68.52;102187.16;5095151;28;20044;-72
2023/05/04 00:17:05;;;;;;;12.93;8.75;;;;;;;9.23;68.15;102172.41;5092976;28;20028;-72
2023/05/04 00:19:34;;;;;;;12.68;8.50;;;;;;;9.16;68.88;102181.03;5102097;28;20020;-72
2023/05/04 00:22:00;;;;;;;12.63;8.65;;;;;;;9.14;68.41;102176.69;5080172;28;20064;-71
2023/05/04 00:24:26;;;;;;;13.10;8.60;;;;;;;9.11;69.02;102170.59;5093419;28;20115;-72
2023/05/04 00:26:51;;;;;;;16.65;9.15;;;;;;;9.07;68.12;102158.44;5102108;28;20107;-72
2023/05/04 00:29:16;;;;;;;13.05;9.27;;;;;;;9.09;68.40;102155.00;5093985;28;20115;-72
2023/05/04 00:31:42;;;;;;;14.55;8.65;;;;;;;9.11;69.26;102165.41;5097565;28;20020;-72
2023/05/04 00:34:07;;;;;;;13.82;8.73;;;;;;;9.06;68.99;102161.94;5094541;28;20024;-71
2023/05/04 00:36:33;;;;;;;12.48;8.55;;;;;;;9.03;68.90;102154.13;5094595;28;20024;-71
2023/05/04 00:38:58;;;;;;;12.35;8.57;;;;;;;9.03;69.15;102157.56;5094793;28;20029;-72
2023/05/04 00:41:23;;;;;;;13.60;8.63;;;;;;;9.02;69.81;102157.56;5099340;28;20483;-72
2023/05/04 00:43:49;;;;;;;16.17;8.52;;;;;;;8.98;69.52;102156.69;5091922;28;20046;-71
2023/05/04 00:46:15;;;;;;;14.95;8.88;;;;;;;8.97;69.29;102160.16;5100154;28;20036;-72
2023/05/04 00:48:41;;;;;;;11.45;8.15;;;;;;;8.98;69.59;102159.28;5089087;28;20378;-71
2023/05/04 00:51:09;;;;;;;13.00;8.30;;;;;;;8.96;70.10;102157.53;5086611;28;20143;-72
2023/05/04 00:53:35;;;;;;;13.93;8.68;;;;;;;8.94;70.05;102149.72;5093197;28;20096;-72
2023/05/04 00:56:02;;;;;;;17.98;8.80;;;;;;;8.90;70.50;102142.78;5092245;28;20077;-72
2023/05/04 00:58:28;;;;;;;13.23;8.50;;;;;;;8.87;70.20;102145.38;5093768;28;20092;-71
2023/05/04 01:00:54;;;;;;;15.82;8.80;;;;;;;8.86;70.51;102144.50;5091769;28;20413;-71
2023/05/04 01:03:19;;;;;;;13.73;8.82;;;;;;;8.82;70.98;102139.28;5092868;28;20038;-72
2023/05/04 01:06:04;;;;;;;13.02;8.30;;;;;;;8.76;70.73;102144.44;5092648;28;20459;-72
2023/05/04 01:08:31;;;;;;;13.45;8.18;;;;;;;8.74;71.04;102147.03;5098973;28;20027;-72
2023/05/04 01:11:01;;;;;;;13.95;8.98;;;;;;;8.81;71.74;102147.94;5101174;28;20028;-72
2023/05/04 01:13:27;;;;;;;16.60;8.82;;;;;;;8.70;71.51;102124.50;5091334;28;20486;-73
2023/05/04 01:15:53;;;;;;;13.93;9.05;;;;;;;8.73;70.93;102139.22;5094452;28;20027;-72
2023/05/04 01:18:19;;;;;;;13.50;8.30;;;;;;;8.73;71.96;102126.22;5095295;28;20033;-72
2023/05/04 01:20:44;;;;;;;13.27;8.30;;;;;;;8.66;71.27;102128.81;5089954;28;20024;-72
2023/05/04 01:23:10;;;;;;;14.68;8.52;;;;;;;8.64;71.23;102125.31;5093788;28;20093;-72
2023/05/04 01:25:43;;;;;;;15.05;8.25;;;;;;;8.63;71.15;102126.19;5078553;28;20487;-71
2023/05/04 01:28:17;;;;;;;13.53;7.90;;;;;;;8.60;72.23;102128.78;5105306;28;20023;-72
2023/05/04 01:30:44;;;;;;;14.02;8.13;;;;;;;8.54;73.23;102126.16;5095423;28;20773;-72
2023/05/04 01:33:10;;;;;;;11.70;8.45;;;;;;;8.46;73.10;102122.63;5095846;28;20521;-72
2023/05/04 01:35:36;;;;;;;15.40;8.73;;;;;;;8.43;72.56;102131.25;5097357;28;20036;-72
2023/05/04 01:38:02;;;;;;;14.13;8.77;;;;;;;8.40;72.93;102117.38;5089281;28;20039;-72
2023/05/04 01:40:27;;;;;;;14.63;8.50;;;;;;;8.43;74.07;102130.41;5101346;28;20027;-72
2023/05/04 01:42:52;;;;;;;12.65;8.32;;;;;;;8.39;72.86;102120.84;5098427;28;20024;-72
2023/05/04 01:45:18;;;;;;;13.55;8.55;;;;;;;8.36;73.80;102115.59;5102263;28;20039;-72
2023/05/04 01:47:43;;;;;;;13.23;8.73;;;;;;;8.34;75.01;102120.81;5096970;28;20020;-72
2023/05/04 01:50:08;;;;;;;14.00;8.68;;;;;;;8.30;74.15;102120.75;5088317;28;20024;-72
2023/05/04 01:52:34;;;;;;;16.35;8.98;;;;;;;8.32;75.43;102124.25;5089695;28;20020;-72
2023/05/04 01:54:59;;;;;;;11.30;8.52;;;;;;;8.32;74.91;102122.50;5094982;28;20480;-72
2023/05/04 01:57:24;;;;;;;14.95;9.02;;;;;;;8.27;75.80;102112.94;5093520;28;20028;-72
2023/05/04 01:59:50;;;;;;;15.00;9.07;;;;;;;8.21;75.84;102119.84;5090689;28;20028;-72
2023/05/04 02:02:15;;;;;;;13.23;8.98;;;;;;;8.25;75.30;102125.06;5095326;28;20032;-72
2023/05/04 02:04:40;;;;;;;15.07;8.82;;;;;;;8.20;76.70;102120.69;5089639;28;20043;-72
2023/05/04 02:07:06;;;;;;;15.70;9.27;;;;;;;8.18;76.09;102122.44;5095614;28;20055;-72
2023/05/04 02:09:32;;;;;;;13.10;8.50;;;;;;;8.17;75.40;102125.00;5097179;28;20535;-72
2023/05/04 02:11:57;;;;;;;16.65;9.50;;;;;;;8.10;75.97;102116.28;5105415;28;20029;-72
2023/05/04 02:14:22;;;;;;;11.82;8.48;;;;;;;8.15;77.39;102124.13;5090808;28;20057;-72
2023/05/04 02:16:47;;;;;;;12.57;8.65;;;;;;;8.10;77.27;102116.28;5096218;28;20074;-72
2023/05/04 02:19:13;;;;;;;11.73;8.48;;;;;;;8.07;76.61;102115.41;5095113;28;20105;-72
2023/05/04 02:21:40;;;;;;;12.70;9.05;;;;;;;8.05;76.41;102118.00;5089435;28;20032;-72
2023/05/04 02:24:05;;;;;;;13.07;9.20;;;;;;;8.02;76.98;102125.78;5089897;28;20040;-72
2023/05/04 02:26:31;;;;;;;13.13;9.23;;;;;;;8.00;77.34;102113.63;5088789;28;20402;-72
2023/05/04 02:28:56;;;;;;;12.65;9.15;;;;;;;8.00;77.72;102121.41;5099003;28;20028;-72
2023/05/04 02:31:21;;;;;;;16.38;9.25;;;;;;;7.93;77.67;102102.31;5096311;28;20533;-72
2023/05/04 02:33:48;;;;;;;12.27;8.70;;;;;;;7.89;76.98;102097.97;5100401;28;20024;-72
2023/05/04 02:36:13;;;;;;;14.85;9.68;;;;;;;7.87;77.28;102103.13;5097917;28;20020;-71
2023/05/04 02:38:38;;;;;;;11.85;8.10;;;;;;;7.85;78.43;102099.69;5098714;28;20024;-72
2023/05/04 02:41:03;;;;;;;11.85;8.68;;;;;;;7.81;78.89;102107.41;5107013;28;20063;-72
2023/05/04 02:43:29;;;;;;;14.63;8.77;;;;;;;7.80;79.00;102105.69;5100601;28;20024;-72
2023/05/04 02:45:54;;;;;;;13.88;9.50;;;;;;;7.71;79.04;102096.94;5102106;28;20031;-72
2023/05/04 02:48:19;;;;;;;15.15;9.05;;;;;;;7.69;79.19;102103.88;5099768;28;20046;-72
2023/05/04 02:50:45;;;;;;;12.38;8.25;;;;;;;7.63;80.31;102096.03;5108462;28;20106;-73
2023/05/04 02:53:10;;;;;;;13.13;8.73;;;;;;;7.65;80.47;102106.41;5100261;28;20357;-72
2023/05/04 02:55:36;;;;;;;13.07;8.88;;;;;;;7.57;81.32;102101.16;5096058;28;20097;-72
2023/05/04 02:58:01;;;;;;;16.92;9.35;;;;;;;7.53;81.22;102102.00;5095683;28;21031;-72
2023/05/04 03:00:26;;;;;;;12.32;9.10;;;;;;;7.49;80.86;102101.09;5094931;28;20027;-72
2023/05/04 03:02:52;;;;;;;14.85;8.98;;;;;;;7.44;81.62;102101.91;5102211;28;20024;-72
2023/05/04 03:05:18;;;;;;;13.82;9.20;;;;;;;7.45;81.67;102106.22;5094385;28;20039;-71
2023/05/04 03:07:43;;;;;;;14.00;8.35;;;;;;;7.34;81.99;102100.94;5098044;28;20026;-72
2023/05/04 03:10:09;;;;;;;15.88;9.70;;;;;;;7.37;82.53;102098.38;5096792;28;20479;-72
2023/05/04 03:12:34;;;;;;;15.68;8.95;;;;;;;7.37;82.00;102094.91;5095002;28;20042;-72
2023/05/04 03:14:59;;;;;;;17.45;9.30;;;;;;;7.39;81.82;102104.47;5096513;28;20047;-72
2023/05/04 03:17:24;;;;;;;12.38;9.48;;;;;;;7.38;82.28;102096.66;5095092;28;20036;-72
2023/05/04 03:19:50;;;;;;;18.27;9.73;;;;;;;7.27;83.31;102089.63;5093793;28;20077;-72
2023/05/04 03:22:15;;;;;;;12.85;9.05;;;;;;;7.30;83.09;102093.13;5094059;28;20435;-72
2023/05/04 03:24:41;;;;;;;15.52;9.75;;;;;;;7.28;84.17;102086.19;5089834;28;20077;-72
2023/05/04 03:27:06;;;;;;;17.45;10.07;;;;;;;7.27;83.32;102092.22;5098467;28;20042;-72
2023/05/04 03:29:31;;;;;;;20.83;9.30;;;;;;;7.28;83.52;102093.09;5094717;28;20023;-72
2023/05/04 03:31:56;;;;;;;17.63;9.18;;;;;;;7.23;82.91;102084.41;5096995;28;20051;-72
2023/05/04 03:34:22;;;;;;;16.50;9.18;;;;;;;7.22;83.79;102085.25;5094903;28;20089;-72
2023/05/04 03:36:48;;;;;;;15.82;10.23;;;;;;;7.17;84.52;102087.81;5093068;28;20023;-72
2023/05/04 03:39:15;;;;;;;12.75;9.70;;;;;;;7.14;83.88;102079.13;5103645;28;20467;-71
2023/05/04 03:41:41;;;;;;;14.75;9.57;;;;;;;7.13;85.07;102072.19;5096191;28;20062;-72
2023/05/04 03:44:06;;;;;;;13.68;10.07;;;;;;;7.10;85.98;102070.44;5091372;28;20063;-72
2023/05/04 03:46:31;;;;;;;14.68;9.20;;;;;;;7.08;84.80;102071.28;5103710;28;20048;-72
2023/05/04 03:48:57;;;;;;;15.23;9.60;;;;;;;7.11;86.46;102071.31;5101273;28;20383;-71
2023/05/04 03:51:22;;;;;;;13.65;9.63;;;;;;;7.06;86.51;102072.97;5093892;28;20028;-71
2023/05/04 03:53:47;;;;;;;13.48;9.55;;;;;;;7.03;87.33;102066.91;5099019;28;20493;-72
2023/05/04 03:56:13;;;;;;;15.68;9.82;;;;;;;7.02;86.95;102059.97;5094976;28;20470;-72
2023/05/04 03:58:38;;;;;;;18.65;9.77;;;;;;;7.04;86.46;102066.06;5095647;28;20481;-71
2023/05/04 04:01:03;;;;;;;15.43;10.25;;;;;;;7.06;86.05;102063.47;5093046;28;20034;-72
2023/05/04 04:03:29;;;;;;;17.80;9.77;;;;;;;7.02;87.24;102066.88;5096727;28;20016;-72
2023/05/04 04:05:55;;;;;;;13.40;9.45;;;;;;;7.06;87.15;102066.06;5092536;28;20022;-72
2023/05/04 04:08:20;;;;;;;15.88;10.00;;;;;;;7.06;88.24;102068.66;5095063;28;20020;-72
2023/05/04 04:10:45;;;;;;;16.25;10.13;;;;;;;6.97;nan;102064.25;5096097;28;20048;-72
2023/05/04 04:13:11;;;;;;;14.73;9.75;;;;;;;6.92;87.34;102065.91;5100418;28;20482;-72
2023/05/04 04:15:39;;;;;;;15.48;9.73;;;;;;;6.97;87.80;102064.25;5102040;28;20048;-72
2023/05/04 04:18:05;;;;;;;17.33;10.00;;;;;;;6.97;88.55;102058.22;5096754;28;20494;-72
2023/05/04 04:20:31;;;;;;;14.25;10.45;;;;;;;7.01;88.25;102065.16;5101144;28;20020;-72
2023/05/04 04:22:57;;;;;;;18.27;10.45;;;;;;;6.94;88.92;102051.25;5100687;28;20420;-72
2023/05/04 04:25:23;;;;;;;14.05;9.93;;;;;;;7.00;88.50;102055.66;5096356;28;20024;-72
2023/05/04 04:27:48;;;;;;;15.80;9.95;;;;;;;7.03;88.53;102053.97;5092145;28;20027;-72
2023/05/04 04:30:14;;;;;;;18.58;10.57;;;;;;;7.03;88.47;102055.69;5092714;28;20123;-72
2023/05/04 04:32:39;;;;;;;17.25;10.43;;;;;;;7.02;88.50;102056.50;5092095;28;20423;-72
2023/05/04 04:35:05;;;;;;;15.38;9.35;;;;;;;7.03;87.71;102038.41;5104003;28;20081;-72
2023/05/04 04:37:31;;;;;;;18.70;9.95;;;;;;;7.06;88.42;102041.84;5101623;28;20029;-72
2023/05/04 04:39:56;;;;;;;20.05;9.50;;;;;;;7.06;88.37;102026.28;5090398;28;20119;-72
2023/05/04 04:42:21;;;;;;;17.25;10.20;;;;;;;7.15;87.65;102040.22;5090168;28;20106;-72
2023/05/04 04:44:48;;;;;;;17.27;9.88;;;;;;;7.23;87.19;102050.69;5094968;28;20177;-71
2023/05/04 04:47:15;;;;;;;16.05;9.40;;;;;;;7.26;87.13;102045.53;5100177;28;20048;-71
2023/05/04 04:49:40;;;;;;;17.17;10.23;;;;;;;7.31;87.00;102037.78;5094276;28;20379;-72
2023/05/04 04:52:06;;;;;;;18.92;10.10;;;;;;;7.39;87.12;102052.56;5091191;28;20028;-72
2023/05/04 04:54:31;;;;;;;19.10;9.80;;;;;;;7.38;87.35;102042.16;5092253;28;20038;-72
2023/05/04 04:56:58;;;;;;;18.70;10.05;;;;;;;7.40;86.97;102048.25;5091512;28;20088;-72
2023/05/04 04:59:23;;;;;;;13.38;9.93;;;;;;;7.40;86.96;102048.25;5091815;28;20482;-72
2023/05/04 05:01:49;;;;;;;20.52;10.07;;;;;;;7.37;87.98;102041.31;5091246;28;20157;-72
2023/05/04 05:04:15;;;;;;;16.15;9.93;;;;;;;7.33;87.26;102036.09;5093950;28;20119;-72
2023/05/04 05:06:40;;;;;;;12.40;9.75;;;;;;;7.43;87.78;102050.88;5102442;28;20089;-72
2023/05/04 05:09:06;;;;;;;14.70;9.43;;;;;;;7.45;87.84;102051.75;5092539;28;20168;-71
2023/05/04 05:11:31;;;;;;;14.45;8.90;;;;;;;7.48;88.37;102051.75;5093456;28;20024;-72
2023/05/04 05:13:58;;;;;;;15.38;9.20;;;;;;;7.57;87.47;102051.84;5089421;28;20159;-72
2023/05/04 05:16:24;;;;;;;12.75;9.10;;;;;;;7.56;87.34;102044.06;5093504;28;20015;-72
2023/05/04 05:18:49;;;;;;;14.32;9.23;;;;;;;7.63;87.37;102051.91;5096242;28;20035;-72
2023/05/04 05:21:15;;;;;;;18.40;10.07;;;;;;;7.65;86.85;102057.09;5087398;28;20039;-71
2023/05/04 05:23:40;;;;;;;13.25;9.60;;;;;;;7.71;86.79;102054.56;5095768;28;20050;-72
2023/05/04 05:26:05;;;;;;;17.10;9.15;;;;;;;7.77;86.09;102059.78;5092796;28;20031;-71
2023/05/04 05:28:31;;;;;;;12.27;9.63;;;;;;;7.84;87.10;102053.78;5090064;28;20016;-72
2023/05/04 05:30:59;;;;;;;18.00;8.63;;;;;;;7.87;86.29;102056.41;5086247;28;20028;-71
2023/05/04 05:33:24;;;;;;;20.55;9.73;;;;;;;7.81;86.34;102034.72;5088122;28;20028;-72
2023/05/04 05:35:50;;;;;;;16.33;8.90;;;;;;;7.98;86.02;102059.97;5089423;28;20020;-72
2023/05/04 05:38:16;;;;;;;15.05;8.95;;;;;;;8.04;86.19;102059.09;5094668;28;20074;-72
2023/05/04 05:40:41;;;;;;;13.63;8.93;;;;;;;8.05;84.13;102050.47;5094269;28;20027;-72
2023/05/04 05:43:07;;;;;;;13.05;8.98;;;;;;;8.15;85.57;102054.88;5089283;28;20028;-71
2023/05/04 05:45:32;;;;;;;15.40;9.38;;;;;;;8.23;84.46;102054.91;5091072;28;20039;-72
2023/05/04 05:47:57;;;;;;;15.75;9.63;;;;;;;8.34;85.16;102047.19;5088171;28;20068;-72
2023/05/04 05:50:23;;;;;;;14.15;9.05;;;;;;;8.44;84.40;102054.19;5090634;28;20035;-71
2023/05/04 05:52:49;;;;;;;14.77;8.20;;;;;;;8.45;83.66;102040.31;5089372;28;20107;-71
2023/05/04 05:55:14;;;;;;;17.85;9.00;;;;;;;8.55;83.60;102041.22;5092326;28;20043;-72
2023/05/04 05:57:39;;;;;;;14.15;8.65;;;;;;;8.60;81.85;102047.31;5091541;27;20466;-72
2023/05/04 06:00:05;;;;;;;15.60;8.73;;;;;;;8.65;82.88;102043.88;5089248;28;20122;-72
2023/05/04 06:02:31;;;;;;;16.13;9.30;;;;;;;8.71;82.10;102040.44;5095284;28;20127;-72
2023/05/04 06:04:56;;;;;;;13.68;8.63;;;;;;;8.76;81.40;102033.50;5095534;28;20108;-72
2023/05/04 06:07:22;;;;;;;15.23;9.30;;;;;;;8.76;81.22;102024.84;5090335;28;20075;-71
2023/05/04 06:09:48;;;;;;;12.88;8.27;;;;;;;8.86;81.27;102039.59;5091462;28;20084;-72
2023/05/04 06:12:14;;;;;;;13.60;8.90;;;;;;;8.83;82.78;102011.88;5090981;28;20024;-71
2023/05/04 06:14:39;;;;;;;17.13;9.15;;;;;;;8.94;80.97;102024.88;5095924;28;20043;-72
2023/05/04 06:17:04;;;;;;;17.40;9.23;;;;;;;9.03;80.11;102017.09;5089934;28;20145;-71
2023/05/04 06:19:33;;;;;;;13.45;8.82;;;;;;;9.16;80.29;102019.75;5095415;28;20371;-72
2023/05/04 06:21:58;;;;;;;18.45;8.98;;;;;;;9.21;79.41;102012.78;5102263;28;20061;-72
2023/05/04 06:24:25;;;;;;;14.25;9.07;;;;;;;9.31;79.91;102018.00;5090674;28;20028;-72
2023/05/04 06:26:51;;;;;;;13.50;9.00;;;;;;;9.36;78.74;102005.00;5090973;28;20024;-71
2023/05/04 06:29:16;;;;;;;14.23;9.10;;;;;;;9.46;78.95;102013.69;5098090;28;20065;-71
2023/05/04 06:31:41;;;;;;;15.27;9.07;;;;;;;9.57;78.79;102004.09;5100230;28;20065;-72
2023/05/04 06:34:07;;;;;;;16.83;8.65;;;;;;;9.63;77.33;101990.22;5093412;28;20464;-72
2023/05/04 06:36:32;;;;;;;13.60;8.50;;;;;;;9.75;76.61;101985.88;5090710;28;20024;-72
2023/05/04 06:38:57;;;;;;;13.05;8.93;;;;;;;9.91;75.79;101998.84;5086446;28;20032;-72
2023/05/04 06:41:23;;;;;;;12.05;8.20;;;;;;;9.98;73.87;101997.97;5087731;28;20024;-71
2023/05/04 06:43:49;;;;;;;13.77;8.65;;;;;;;10.02;74.85;101997.97;5088757;28;20028;-72
2023/05/04 06:46:15;;;;;;;13.20;8.48;;;;;;;10.01;75.13;101988.41;5087824;28;20031;-71
2023/05/04 06:48:40;;;;;;;15.05;8.40;;;;;;;10.09;75.27;101997.06;5090479;28;20056;-71
2023/05/04 06:51:05;;;;;;;12.70;8.43;;;;;;;10.16;74.70;101984.00;5093556;28;20081;-71
2023/05/04 06:53:31;;;;;;;11.27;8.35;;;;;;;10.27;74.88;101990.09;5089486;28;20032;-71
2023/05/04 06:55:56;;;;;;;10.73;7.65;;;;;;;10.38;74.25;101988.31;5091852;28;20471;-71
2023/05/04 06:58:22;;;;;;;13.07;8.18;;;;;;;10.41;74.68;101969.19;5092248;28;20020;-71
2023/05/04 07:00:47;;;;;;;10.85;8.32;;;;;;;10.49;73.21;101976.06;5090145;28;20103;-71
2023/05/04 07:03:13;;;;;;;15.70;9.50;;;;;;;10.60;74.67;101981.25;5093942;28;21638;-71
2023/05/04 07:05:38;;;;;;;15.65;9.15;;;;;;;10.61;72.65;101976.91;5091594;28;20032;-72
2023/05/04 07:08:04;;;;;;;13.75;7.97;;;;;;;10.67;72.90;101972.53;5091128;28;20095;-71
2023/05/04 07:10:29;;;;;;;13.18;8.07;;;;;;;10.74;73.07;101970.75;5092257;28;20108;-71
2023/05/04 07:12:57;;;;;;;12.90;8.75;;;;;;;10.84;70.57;101971.56;5090709;28;20494;-71
2023/05/04 07:15:22;;;;;;;11.27;7.78;;;;;;;10.94;72.79;101973.22;5090217;28;20036;-71
2023/05/04 07:17:48;;;;;;;13.05;8.27;;;;;;;11.04;71.12;101964.44;5091393;28;20032;-71
2023/05/04 07:20:14;;;;;;;13.00;8.13;;;;;;;11.13;71.66;101953.06;5094250;28;20024;-71
2023/05/04 07:22:39;;;;;;;11.02;8.02;;;;;;;11.26;68.93;101949.47;5093610;28;20031;-70
2023/05/04 07:25:05;;;;;;;14.25;7.72;;;;;;;11.47;68.85;101951.88;5084743;28;20090;-71
2023/05/04 07:27:30;;;;;;;15.82;8.20;;;;;;;11.80;70.43;101957.66;5090356;28;21125;-71
2023/05/04 07:29:56;;;;;;;11.27;7.93;;;;;;;11.99;67.74;101944.41;5095672;28;20107;-72
2023/05/04 07:32:21;;;;;;;12.40;8.00;;;;;;;12.10;67.28;101939.94;5091470;28;20093;-71
2023/05/04 07:34:47;;;;;;;13.98;7.68;;;;;;;12.21;65.49;101950.25;5094659;28;20020;-72
2023/05/04 07:37:12;;;;;;;13.48;7.70;;;;;;;12.33;65.52;101955.34;5109261;28;20497;-72
2023/05/04 07:39:38;;;;;;;13.95;8.10;;;;;;;12.39;66.00;101926.47;5097223;28;20110;-72
2023/05/04 07:42:04;;;;;;;11.77;7.50;;;;;;;12.66;64.84;101940.94;5104471;28;20093;-72
2023/05/04 07:44:30;;;;;;;13.20;7.97;;;;;;;12.77;64.82;101946.00;5094368;28;20422;-73
2023/05/04 07:46:57;;;;;;;14.23;7.70;;;;;;;12.87;63.92;101940.59;5095183;28;20112;-72
2023/05/04 07:49:22;;;;;;;10.18;7.80;;;;;;;12.99;62.75;101941.31;5094225;28;20023;-72
2023/05/04 07:51:47;;;;;;;13.30;7.72;;;;;;;13.11;63.55;101943.69;5095122;28;20089;-73
2023/05/04 07:54:14;;;;;;;11.75;7.10;;;;;;;13.18;62.06;101949.69;5107218;28;20118;-72
2023/05/04 07:56:39;;;;;;;13.35;7.75;;;;;;;13.31;61.27;101946.03;5095197;28;20017;-73
2023/05/04 07:59:05;;;;;;;12.02;7.82;;;;;;;13.45;61.14;101937.94;5102277;28;20077;-72
2023/05/04 08:01:30;;;;;;;10.82;7.47;;;;;;;13.64;61.26;101949.81;5098205;28;20012;-72
2023/05/04 08:03:55;;;;;;;18.73;7.55;;;;;;;13.67;59.37;101927.91;5100687;28;20055;-73
2023/05/04 08:06:21;;;;;;;10.27;7.20;;;;;;;13.80;59.29;101938.13;5105724;28;20027;-73
2023/05/04 08:08:48;;;;;;;12.75;7.38;;;;;;;13.95;58.43;101934.34;5096944;28;20077;-73
2023/05/04 08:11:14;;;;;;;12.25;8.07;;;;;;;14.11;58.21;101937.50;5111452;28;20031;-74
2023/05/04 08:13:40;;;;;;;10.52;7.18;;;;;;;14.27;56.42;101919.69;5098241;28;20507;-73
2023/05/04 08:16:07;;;;;;;12.73;7.68;;;;;;;14.46;57.86;101928.91;5103276;28;20085;-72
2023/05/04 08:18:32;;;;;;;11.95;7.40;;;;;;;14.57;56.73;101926.06;5092821;28;20036;-73
2023/05/04 08:20:57;;;;;;;11.60;7.18;;;;;;;14.64;58.10;101922.38;5093738;28;20035;-73
2023/05/04 08:23:23;;;;;;;11.00;7.40;;;;;;;14.65;57.58;101920.63;5101589;28;20039;-73
2023/05/04 08:25:48;;;;;;;10.88;7.15;;;;;;;14.71;58.41;101908.25;5083231;28;20068;-73
2023/05/04 08:28:17;;;;;;;12.20;7.50;;;;;;;14.64;57.53;101888.25;5111883;28;20027;-73
2023/05/04 08:30:42;;;;;;;15.10;7.90;;;;;;;14.65;54.91;101911.00;5096458;27;20020;-78
2023/05/04 08:33:07;;;;;;;13.05;7.63;;;;;;;14.52;56.18;101910.44;5093590;28;20529;-77
2023/05/04 08:35:33;;;;;;;10.23;7.20;;;;;;;14.65;57.89;101915.38;5094025;28;20024;-77
2023/05/04 08:37:58;;;;;;;12.35;7.45;;;;;;;14.71;54.81;101912.59;5093074;28;20024;-77
2023/05/04 08:40:24;;;;;;;9.48;7.57;;;;;;;14.74;56.28;101909.91;5092725;28;20019;-77
2023/05/04 08:42:51;;;;;;;14.68;8.05;;;;;;;14.84;57.17;101897.41;5094014;28;20027;-76
2023/05/04 08:45:16;;;;;;;12.35;7.57;;;;;;;15.03;55.68;101906.56;5093348;28;20032;-73
2023/05/04 08:47:42;;;;;;;12.13;8.05;;;;;;;15.08;56.13;101888.94;5090175;28;20072;-72
2023/05/04 08:50:09;;;;;;;12.52;7.22;;;;;;;15.26;55.83;101887.59;5105911;28;20066;-73
2023/05/04 08:52:36;;;;;;;12.10;7.30;;;;;;;15.41;54.91;101870.56;5091230;28;20416;-76
2023/05/04 08:55:03;;;;;;;10.68;7.30;;;;;;;15.58;53.68;101864.84;5099697;28;20081;-72
2023/05/04 08:57:29;;;;;;;8.63;6.97;;;;;;;15.86;54.48;101859.72;5092830;28;20073;-73
2023/05/04 08:59:55;;;;;;;11.48;7.03;;;;;;;16.03;54.67;101867.09;5096348;28;20028;-71
2023/05/04 09:02:22;;;;;;;12.27;7.60;;;;;;;16.20;54.23;101859.53;5095567;28;20023;-73
2023/05/04 09:04:51;;;;;;;11.23;6.32;;;;;;;16.32;52.82;101855.69;5094500;28;20031;-73
2023/05/04 09:07:18;;;;;;;14.13;7.20;;;;;;;16.38;51.29;101850.19;5091389;28;20379;-73
2023/05/04 09:09:43;;;;;;;10.05;6.90;;;;;;;16.45;51.87;101850.88;5092345;28;20016;-73
2023/05/04 09:12:09;;;;;;;11.85;7.10;;;;;;;16.56;51.18;101854.88;5090274;28;20479;-73
2023/05/04 09:14:35;;;;;;;10.82;7.05;;;;;;;16.71;51.78;101852.66;5095735;28;20078;-72
2023/05/04 09:17:01;;;;;;;11.73;6.88;;;;;;;16.73;49.33;101846.44;5093049;28;20055;-72
2023/05/04 09:19:33;;;;;;;11.60;6.85;;;;;;;16.72;50.02;101849.13;5101802;28;20020;-72
2023/05/04 09:22:16;;;;;;;9.30;6.55;;;;;;;16.82;50.98;101846.16;5094748;28;20058;-72
2023/05/04 09:24:41;;;;;;;9.07;6.30;;;;;;;16.94;50.61;101850.16;5085150;28;20491;-73
2023/05/04 09:27:11;;;;;;;12.50;7.10;;;;;;;17.04;50.68;101846.31;5088735;28;20028;-73
2023/05/04 09:29:39;;;;;;;9.88;6.60;;;;;;;17.17;49.96;101835.34;5091583;28;20027;-73
2023/05/04 09:32:06;;;;;;;11.35;6.60;;;;;;;17.25;49.18;101852.59;5092997;28;20510;-73
2023/05/04 09:34:32;;;;;;;9.07;6.88;;;;;;;17.32;49.56;101845.31;5092352;28;20020;-73
2023/05/04 09:37:02;;;;;;;13.80;7.38;;;;;;;17.42;48.67;101841.44;5088402;28;20116;-73
2023/05/04 09:39:29;;;;;;;8.27;7.05;;;;;;;17.47;49.16;101836.88;5098651;28;20020;-73
2023/05/04 09:41:55;;;;;;;9.32;6.80;;;;;;;17.50;48.65;101838.53;5088178;28;20173;-73
2023/05/04 09:44:23;;;;;;;10.05;6.60;;;;;;;17.59;48.99;101830.25;5092401;28;20034;-73
2023/05/04 09:46:56;;;;;;;11.45;6.15;;;;;;;17.79;48.80;101824.31;5092095;28;20028;-73
2023/05/04 09:49:35;;;;;;;9.85;6.70;;;;;;;17.86;47.44;101822.28;5087407;28;20353;-72
2023/05/04 09:52:02;;;;;;;10.80;7.25;;;;;;;17.92;47.70;101819.38;5092759;28;20066;-74
2023/05/04 09:54:33;;;;;;;11.80;6.40;;;;;;;18.01;47.03;101827.81;5093034;28;20031;-74
2023/05/04 09:57:12;;;;;;;13.77;6.88;;;;;;;18.14;48.85;101830.84;5092344;28;20027;-74
2023/05/04 09:59:38;;;;;;;9.90;6.97;;;;;;;18.36;46.26;101820.28;5092456;28;20031;-74
2023/05/04 10:02:08;;;;;;;8.75;6.65;;;;;;;18.41;45.95;101818.31;5093524;28;20024;-74
2023/05/04 10:04:34;;;;;;;9.65;6.55;;;;;;;18.47;47.33;101815.44;5091954;28;20023;-74
2023/05/04 10:07:03;;;;;;;13.80;8.02;;;;;;;18.41;46.98;101810.41;5092499;28;20498;-75
2023/05/04 10:09:30;;;;;;;9.73;6.18;;;;;;;18.43;48.00;101800.63;5092204;28;20047;-74
2023/05/04 10:11:58;;;;;;;11.23;7.32;;;;;;;18.59;46.97;101789.44;5092351;28;20023;-73
2023/05/04 10:14:23;;;;;;;8.98;6.50;;;;;;;18.74;46.12;101783.56;5092490;28;20488;-71
2023/05/04 10:17:00;;;;;;;10.30;7.03;;;;;;;18.87;47.10;101771.53;5091489;28;20018;-71
2023/05/04 10:19:49;;;;;;;9.05;6.80;;;;;;;19.13;46.49;101774.81;5090561;28;20471;-72
2023/05/04 10:22:43;;;;;;;11.18;6.13;;;;;;;19.32;44.80;101759.81;5091479;28;20478;-71
2023/05/04 10:25:27;;;;;;;;;;;;;;;19.49;46.26;101764.34;5075934;28;20028;-74
2023/05/04 10:28:23;;;;;;;8.77;6.15;;;;;;;19.73;46.01;101753.59;5083911;28;19923;-73
2023/05/04 10:30:56;;;;;;;12.70;6.55;;;;;;;19.84;45.88;101744.19;5087451;28;20031;-73
2023/05/04 10:33:21;;;;;;;9.35;6.75;;;;;;;19.92;45.51;101740.34;5092585;28;20096;-73
2023/05/04 10:35:51;;;;;;;12.75;7.15;;;;;;;19.92;44.81;101732.41;5091930;28;20456;-73
2023/05/04 10:38:17;;;;;;;10.63;6.97;;;;;;;19.87;44.13;101736.09;5100870;28;20020;-73
2023/05/04 10:40:42;;;;;;;12.40;7.40;;;;;;;19.97;42.19;101720.63;5090567;28;20035;-73
2023/05/04 10:43:10;;;;;;;12.55;7.10;;;;;;;20.02;43.63;101723.06;5092125;28;20047;-73
2023/05/04 10:45:38;;;;;;;11.43;6.25;;;;;;;20.14;41.58;101714.50;5091575;28;20497;-72
2023/05/04 10:48:04;;;;;;;11.20;6.38;;;;;;;20.20;43.21;101711.56;5080426;28;20024;-73
2023/05/04 10:50:49;;;;;;;10.10;6.50;;;;;;;20.39;44.23;101697.41;5093488;28;21597;-73
2023/05/04 10:53:17;;;;;;;9.32;6.28;;;;;;;20.50;43.42;101698.56;5092579;28;20027;-73
2023/05/04 10:55:44;;;;;;;12.40;6.43;;;;;;;20.60;43.35;101690.16;5095862;28;20364;-73
2023/05/04 10:58:13;;;;;;;12.60;6.30;;;;;;;20.78;42.70;101692.72;5095270;28;20035;-72
2023/05/04 11:00:40;;;;;;;10.70;5.97;;;;;;;20.83;41.88;101684.53;5094996;28;20101;-73
2023/05/04 11:03:06;;;;;;;8.38;5.88;;;;;;;20.94;42.59;101679.50;5095917;28;20070;-73
2023/05/04 11:05:45;;;;;;;10.63;6.18;;;;;;;21.12;41.52;101671.47;5095521;28;20051;-73
2023/05/04 11:08:18;;;;;;;6.88;4.97;;;;;;;21.17;42.58;101670.31;5096170;28;20024;-73
2023/05/04 11:10:45;;;;;;;8.65;6.15;;;;;;;21.38;40.58;101664.78;5094662;28;20024;-73
2023/05/04 11:13:11;;;;;;;9.95;6.47;;;;;;;21.45;38.62;101661.72;5095071;28;20099;-73
2023/05/04 11:15:47;;;;;;;8.88;5.80;;;;;;;21.58;40.15;101661.00;5095599;28;20528;-73
2023/05/04 11:18:13;;;;;;;10.10;5.88;;;;;;;21.77;39.64;101663.47;5095789;28;20020;-73